Latest Weather Observations for Coldstream

IDV60901

Issued at 7:11 pm EDT Thursday 23 March 2017 (issued every 10 minutes, with the page automatically refreshed every 10 minutes)

About weather observations | Map of Melbourne area stations | Latest observations for Melbourne area | Other Formats
Station Details ID: 086383 Name: COLDSTREAM Lat: -37.72 Lon: 145.41 Height: 83.0 m
Data from the previous 72 hours. | See also: Recent months at Coldstream
Date/Time
EDT
Temp
°C
App
Temp
°C
Dew
Point
°C
Rel
Hum
%
Delta-T
°C
Wind Press
QNH
hPa
Press
MSL
hPa
Rain since
9am
mm
Dir  Spd
km/h
Gust
km/h
Spd
kts
Gust
kts
23/07:00pm 21.1 19.1 13.8 63 4.2 SSE 17 32 9 17 1018.0 1017.8 0.0
23/06:30pm 22.3 20.0 14.2 60 4.8 SSE 19 30 10 16 1017.8 1017.6 0.0
23/06:00pm 23.2 20.9 14.7 58 5.0 SE 20 35 11 19 1017.7 1017.5 0.0
23/05:30pm 23.8 21.6 14.5 56 5.5 SSE 19 28 10 15 1017.4 1017.2 0.0
23/05:00pm 23.9 21.7 14.3 55 5.7 SSE 19 30 10 16 1017.4 1017.2 0.0
23/04:30pm 24.5 21.9 14.9 55 5.8 SSE 22 37 12 20 1017.6 1017.4 0.0
23/04:00pm 24.9 23.0 15.2 54 5.8 S 19 28 10 15 1017.6 1017.4 0.0
23/03:30pm 24.3 22.1 15.0 56 5.6 SSE 20 32 11 17 1017.8 1017.6 0.0
23/03:00pm 24.0 21.8 14.4 55 5.7 SSE 19 28 10 15 1018.1 1017.9 0.0
23/02:30pm 24.4 22.8 15.1 56 5.6 S 17 28 9 15 1018.3 1018.1 0.0
23/02:00pm 23.8 22.0 14.5 56 5.5 S 17 24 9 13 1018.6 1018.4 0.0
23/01:30pm 23.1 21.2 14.1 57 5.3 S 17 24 9 13 1018.8 1018.6 0.0
23/01:00pm 22.7 20.6 13.7 56 5.2 S 17 28 9 15 1019.3 1019.1 0.0
23/12:30pm 23.5 21.4 14.8 58 5.2 SSE 19 28 10 15 1019.4 1019.2 0.0
23/12:00pm 22.7 20.7 14.0 58 5.1 SE 17 24 9 13 1019.7 1019.5 0.0
23/11:30am 22.2 20.0 14.3 61 4.6 SE 19 28 10 15 1020.0 1019.8 0.0
23/11:00am 21.5 18.8 13.4 60 4.7 SE 20 33 11 18 1020.2 1020.0 0.0
23/10:30am 20.5 17.8 13.5 64 4.0 SE 20 33 11 18 1020.1 1019.9 0.0
23/10:00am 20.5 19.0 14.2 67 3.7 SE 15 28 8 15 1020.0 1019.8 0.0
23/09:30am 19.1 16.7 13.9 72 3.0 SE 19 26 10 14 1019.9 1019.7 0.0
23/09:00am 18.0 15.6 13.7 76 2.4 SE 19 28 10 15 1019.7 1019.5 0.2
23/08:30am 17.3 15.8 14.2 82 1.8 SE 15 22 8 12 1019.5 1019.3 0.2
23/08:00am 16.1 15.6 13.9 87 1.2 SE 9 15 5 8 1019.3 1019.1 0.2
23/07:30am 15.2 14.5 13.2 88 1.1 SE 9 17 5 9 1019.1 1018.9 0.2
23/07:00am 15.4 14.3 13.2 87 1.2 ESE 11 17 6 9 1018.9 1018.7 0.2
23/06:30am 15.7 14.3 13.4 86 1.3 SSE 13 26 7 14 1018.7 1018.5 0.2
23/06:00am 15.8 14.0 13.3 85 1.4 SSE 15 26 8 14 1018.5 1018.3 0.2
23/05:30am 16.0 13.8 13.3 84 1.5 SSE 17 30 9 16 1018.4 1018.2 0.2
23/05:00am 16.1 13.9 13.2 83 1.6 SSE 17 28 9 15 1018.1 1017.9 0.2
23/04:30am 16.0 13.8 13.3 84 1.5 SSE 17 24 9 13 1017.9 1017.7 0.2
23/04:00am 16.1 13.4 13.4 84 1.5 SSE 20 33 11 18 1018.1 1017.9 0.2
23/03:30am 16.1 13.0 13.4 84 1.5 SE 22 30 12 16 1017.9 1017.7 0.2
23/03:00am 16.1 12.9 13.0 82 1.7 SSE 22 32 12 17 1018.0 1017.8 0.2
23/02:30am 16.0 13.1 12.9 82 1.7 SE 20 30 11 16 1018.2 1018.0 0.2
23/02:00am 16.2 13.0 13.1 82 1.7 SE 22 32 12 17 1018.5 1018.3 0.2
23/01:30am 16.4 13.6 13.1 81 1.8 SSE 20 33 11 18 1018.5 1018.3 0.2
23/01:00am 16.4 13.9 13.5 83 1.6 SSE 19 32 10 17 1018.6 1018.4 0.2
23/12:30am 16.7 14.0 13.6 82 1.8 SSE 20 28 11 15 1018.5 1018.3 0.2
23/12:00am 16.7 13.3 13.8 83 1.6 SSE 24 32 13 17 1018.7 1018.5 0.2
 
Date/Time
EDT
Temp
°C
App
Temp
°C
Dew
Point
°C
Rel
Hum
%
Delta-T
°C
Wind Press
QNH
hPa
Press
MSL
hPa
Rain since
9am
mm
Dir  Spd
km/h
Gust
km/h
Spd
kts
Gust
kts
22/11:30pm 16.9 13.2 14.0 83 1.7 SSE 26 39 14 21 1018.7 1018.5 0.2
22/11:00pm 17.0 14.1 13.9 82 1.8 SSE 22 41 12 22 1018.7 1018.5 0.2
22/10:30pm 17.7 13.0 13.2 75 2.5 SE 30 44 16 24 1018.5 1018.3 0.2
22/10:10pm 17.9 13.7 13.4 75 2.6 SE 28 46 15 25 1018.4 1018.2 0.2
22/10:00pm 17.9 13.6 13.2 74 2.6 SE 28 41 15 22 1018.4 1018.2 0.2
22/09:40pm 18.1 13.8 13.2 73 2.8 SE 28 46 15 25 1018.3 1018.1 0.2
22/09:30pm 18.0 12.9 13.1 73 2.8 SE 32 44 17 24 1018.2 1018.0 0.2
22/09:00pm 18.0 13.4 13.5 75 2.6 SE 30 50 16 27 1017.7 1017.5 0.2
22/08:48pm 18.1 14.0 13.8 76 2.5 SE 28 50 15 27 1017.6 1017.4 0.2
22/08:30pm 18.2 14.4 13.7 75 2.6 SE 26 39 14 21 1017.2 1017.0 0.2
22/08:00pm 18.4 13.3 13.7 74 2.7 SE 33 54 18 29 1016.6 1016.4 0.2
22/07:30pm 18.7 13.2 13.6 72 2.9 SE 35 54 19 29 1016.4 1016.2 0.2
22/07:16pm 18.8 13.9 13.6 72 3.0 SE 32 50 17 27 1016.4 1016.2 0.2
22/07:00pm 19.3 14.4 13.7 70 3.2 SE 32 48 17 26 1016.3 1016.1 0.2
22/06:30pm 19.9 17.2 14.5 71 3.2 SE 22 35 12 19 1015.7 1015.5 0.2
22/06:00pm 21.1 17.7 14.7 67 3.8 SE 26 39 14 21 1015.7 1015.5 0.2
22/05:30pm 21.7 18.8 15.1 66 3.9 SE 24 35 13 19 1015.7 1015.5 0.2
22/05:00pm 21.9 18.5 14.8 64 4.2 SE 26 39 14 21 1015.3 1015.1 0.2
22/04:30pm 22.6 18.3 15.4 64 4.3 SE 32 54 17 29 1015.2 1015.0 0.2
22/04:04pm 22.2 18.3 15.5 66 4.0 SSE 30 48 16 26 1015.0 1014.8 0.2
22/04:00pm 21.6 17.0 14.7 65 4.1 SE 32 48 17 26 1015.0 1014.8 0.2
22/03:30pm 21.7 17.2 14.8 65 4.1 SSE 32 46 17 25 1015.1 1014.9 0.2
22/03:00pm 21.7 18.2 15.5 68 3.7 SSE 28 48 15 26 1015.0 1014.8 0.2
22/02:53pm 21.5 18.1 15.8 70 3.4 SSE 28 48 15 26 1015.0 1014.8 0.2
22/02:30pm 21.5 18.3 15.3 68 3.7 SSE 26 43 14 23 1015.1 1014.9 0.2
22/02:00pm 22.3 19.4 16.1 68 3.8 SSE 26 41 14 22 1015.0 1014.8 0.2
22/01:30pm 22.4 19.8 16.9 71 3.4 SSE 26 43 14 23 1015.1 1014.9 0.2
22/01:00pm 21.9 19.7 16.8 73 3.1 SSE 24 37 13 20 1015.5 1015.3 0.2
22/12:30pm 21.0 19.2 17.0 78 2.4 SSE 22 37 12 20 1015.8 1015.6 0.2
22/12:00pm 19.9 18.2 17.1 84 1.7 SSE 22 41 12 22 1015.9 1015.7 0.2
22/11:30am 19.1 17.9 17.4 90 1.0 SSE 20 32 11 17 1016.3 1016.1 0.2
22/11:00am 18.4 18.0 17.2 93 0.7 SSE 15 24 8 13 1016.3 1016.1 0.2
22/10:30am 18.6 18.3 17.3 92 0.8 SSE 15 22 8 12 1016.1 1015.9 0.2
22/10:00am 18.7 19.3 17.7 94 0.6 SSE 11 20 6 11 1015.9 1015.7 0.2
22/09:30am 17.8 18.6 17.3 97 0.3 S 9 17 5 9 1015.7 1015.5 0.2
22/09:00am 17.9 18.1 16.8 93 0.7 SSE 11 15 6 8 1015.5 1015.3 11.6
22/08:30am 18.0 18.8 17.4 96 0.4 SSE 9 13 5 7 1015.1 1014.9 11.6
22/08:00am 18.2 19.3 18.0 99 0.1 SW 9 13 5 7 1014.7 1014.5 11.6
22/07:30am 18.2 19.7 18.0 99 0.1 W 7 9 4 5 1014.2 1014.0 11.6
22/07:00am 18.4 19.2 18.2 99 0.1 W 11 15 6 8 1013.7 1013.6 11.6
22/06:30am 18.7 20.0 18.4 98 0.2 WSW 9 11 5 6 1013.0 1012.9 11.6
22/06:00am 19.2 20.3 18.9 98 0.2 WNW 11 17 6 9 1012.7 1012.6 11.6
22/05:30am 19.7 21.2 19.0 96 0.4 WNW 9 17 5 9 1012.5 1012.4 11.6
22/05:00am 19.9 21.9 19.2 96 0.4 NW 7 11 4 6 1012.5 1012.4 11.6
22/04:30am 19.9 21.9 19.1 95 0.5 WNW 7 11 4 6 1012.3 1012.2 11.6
22/04:00am 20.1 22.7 19.3 95 0.5 WNW 4 9 2 5 1012.1 1012.0 11.6
22/03:30am 20.1 22.2 19.3 95 0.5 W 7 9 4 5 1012.0 1011.9 11.6
22/03:00am 20.1 22.2 19.3 95 0.5 NW 7 11 4 6 1011.8 1011.7 11.6
22/02:30am 20.3 22.5 19.5 95 0.5 WNW 7 11 4 6 1011.5 1011.4 11.6
22/02:00am 20.3 22.1 19.5 95 0.5 WNW 9 15 5 8 1011.6 1011.5 11.6
22/01:30am 20.3 22.9 19.3 94 0.6 WNW 4 11 2 6 1011.3 1011.2 11.6
22/01:00am 20.3 23.4 19.5 95 0.5 NNW 2 11 1 6 1011.3 1011.2 11.6
22/12:30am 20.3 21.3 19.5 95 0.5 W 13 19 7 10 1011.2 1011.1 11.6
22/12:00am 20.4 22.1 19.4 94 0.6 WNW 9 13 5 7 1011.2 1011.1 11.6
 
Date/Time
EDT
Temp
°C
App
Temp
°C
Dew
Point
°C
Rel
Hum
%
Delta-T
°C
Wind Press
QNH
hPa
Press
MSL
hPa
Rain since
9am
mm
Dir  Spd
km/h
Gust
km/h
Spd
kts
Gust
kts
21/11:30pm 20.8 22.8 20.0 95 0.5 WNW 9 15 5 8 1011.3 1011.2 11.6
21/11:00pm 21.1 22.8 20.9 99 0.1 W 13 17 7 9 1011.2 1011.1 11.6
21/10:30pm 21.0 24.0 20.8 99 0.1 W 6 13 3 7 1011.1 1011.0 11.6
21/10:00pm 20.7 24.7 20.5 99 0.1 CALM 0 0 0 0 1010.8 1010.7 11.6
21/09:30pm 21.2 25.0 21.0 99 0.1 SSE 2 6 1 3 1010.6 1010.5 11.6
21/09:00pm 21.2 24.3 21.0 99 0.1 SSE 6 9 3 5 1010.4 1010.3 11.6
21/08:30pm 21.5 25.5 21.3 99 0.1 SE 2 7 1 4 1010.1 1009.9 11.6
21/08:00pm 21.6 24.6 21.3 98 0.2 SE 7 11 4 6 1009.9 1009.7 11.6
21/07:30pm 21.8 25.0 21.6 99 0.1 ESE 7 11 4 6 1009.7 1009.5 11.6
21/07:00pm 22.0 25.3 21.8 99 0.1 ESE 7 9 4 5 1009.4 1009.2 11.6
21/06:30pm 21.9 25.3 21.6 98 0.2 SE 6 9 3 5 1009.8 1009.6 11.6
21/06:00pm 21.9 25.3 21.7 99 0.1 SE 6 9 3 5 1009.7 1009.5 11.6
21/05:30pm 21.1 24.8 20.8 98 0.2 SSW 2 7 1 4 1009.7 1009.5 11.0
21/05:00pm 20.9 23.5 20.4 97 0.3 SW 7 13 4 7 1009.7 1009.5 10.6
21/04:30pm 21.8 22.8 19.4 86 1.5 WNW 13 35 7 19 1009.9 1009.7 3.0
21/04:00pm 24.8 27.7 21.1 80 2.4 SW 7 11 4 6 1009.7 1009.5 1.2
21/03:30pm 24.2 26.4 21.1 83 2.0 WSW 11 13 6 7 1010.0 1009.8 1.2
21/03:00pm 24.1 26.3 21.2 84 1.9 W 11 15 6 8 1010.3 1010.2 1.2
21/02:30pm 24.1 27.4 21.8 87 1.5 NW 7 13 4 7 1010.5 1010.4 1.2
21/02:00pm 24.7 27.5 20.8 79 2.6 NNE 7 13 4 7 1010.9 1010.8 0.8
21/01:30pm 25.9 28.4 20.2 71 3.7 ENE 7 13 4 7 1011.1 1011.0 0.6
21/01:00pm 25.8 29.0 20.4 72 3.5 SE 4 11 2 6 1011.4 1011.3 0.6
21/12:30pm 23.8 26.6 20.5 82 2.2 SSE 6 9 3 5 1012.1 1012.0 0.6
21/12:00pm 22.7 26.1 20.2 86 1.6 SE 2 9 1 5 1012.6 1012.5 0.6
21/11:30am 22.0 25.5 20.3 90 1.1 SSE 2 6 1 3 1012.8 1012.7 0.6
21/11:00am 21.4 24.2 20.4 94 0.6 SE 6 9 3 5 1013.1 1013.0 0.6
21/10:30am 21.1 23.9 20.4 96 0.5 ESE 6 9 3 5 1013.2 1013.1 0.6
21/10:00am 20.8 24.0 20.5 98 0.2 E 4 9 2 5 1013.1 1013.0 0.6
21/09:30am 20.7 22.1 20.4 98 0.2 SE 13 17 7 9 1013.3 1013.2 0.4
21/09:00am 20.6 22.4 20.4 99 0.1 SE 11 15 6 8 1013.1 1013.0 6.0
21/08:30am 20.6 22.0 20.4 99 0.1 SE 13 20 7 11 1013.0 1012.9 6.0
21/08:00am 20.6 21.3 20.4 99 0.1 SE 17 24 9 13 1013.0 1012.9 6.0
21/07:30am 20.5 21.9 20.3 99 0.1 SE 13 19 7 10 1012.9 1012.8 5.8
21/07:00am 20.5 21.9 20.3 99 0.1 SE 13 20 7 11 1013.0 1012.9 4.2
21/06:30am 20.3 23.3 20.1 99 0.1 SE 4 7 2 4 1013.1 1013.0 3.8
21/06:00am 20.2 23.9 20.0 99 0.1 CALM 0 0 0 0 1013.3 1013.2 3.0
21/05:30am 20.2 23.9 20.0 99 0.1 CALM 0 0 0 0 1013.2 1013.1 2.2
21/05:00am 20.3 24.1 20.1 99 0.1 CALM 0 6 0 3 1013.2 1013.1 1.8
21/04:30am 20.2 23.9 20.0 99 0.1 CALM 0 0 0 0 1013.2 1013.1 1.6
21/04:00am 20.2 23.9 20.0 99 0.1 CALM 0 0 0 0 1013.3 1013.2 1.6
21/03:30am 20.4 24.2 20.2 99 0.1 CALM 0 0 0 0 1013.4 1013.3 1.6
21/03:00am 20.4 24.2 20.2 99 0.1 CALM 0 0 0 0 1013.7 1013.6 1.6
21/02:30am 20.5 24.4 20.3 99 0.1 CALM 0 0 0 0 1014.2 1014.0 1.6
21/02:00am 20.6 24.5 20.4 99 0.1 CALM 0 0 0 0 1014.4 1014.2 1.6
21/01:30am 20.7 22.9 20.5 99 0.1 NNW 9 24 5 13 1014.8 1014.6 1.6
21/01:00am 20.6 24.5 20.4 99 0.1 CALM 0 0 0 0 1013.7 1013.6 1.6
21/12:30am 20.7 24.7 20.5 99 0.1 CALM 0 6 0 3 1013.7 1013.6 1.6
21/12:00am 20.7 23.5 20.4 98 0.2 NNW 6 9 3 5 1013.6 1013.5 1.6
 
Date/Time
EDT
Temp
°C
App
Temp
°C
Dew
Point
°C
Rel
Hum
%
Delta-T
°C
Wind Press
QNH
hPa
Press
MSL
hPa
Rain since
9am
mm
Dir  Spd
km/h
Gust
km/h
Spd
kts
Gust
kts
20/11:30pm 20.9 24.1 20.4 97 0.3 WSW 4 7 2 4 1014.1 1013.9 1.6
20/11:00pm 21.1 25.0 20.3 95 0.5 CALM 0 7 0 4 1014.4 1014.2 1.6
20/10:30pm 21.4 25.2 20.2 93 0.8 CALM 0 0 0 0 1014.7 1014.5 1.6
20/10:00pm 21.3 25.0 19.9 92 0.9 CALM 0 0 0 0 1014.8 1014.6 1.6
20/09:30pm 22.2 25.7 19.6 85 1.7 CALM 0 4 0 2 1015.2 1015.0 1.2
20/09:00pm 24.0 25.7 18.6 72 3.4 W 7 11 4 6 1015.0 1014.8 0.4
20/08:30pm 24.6 25.1 18.3 68 4.0 NNW 13 26 7 14 1015.0 1014.8 0.4
20/08:00pm 25.3 25.9 18.7 67 4.2 SSE 13 19 7 10 1013.9 1013.8 0.4
20/07:30pm 25.5 25.4 18.7 66 4.3 SE 17 26 9 14 1013.3 1013.2 0.4

Latest Capital City Observations: Canberra | Sydney | Melbourne | Brisbane | Adelaide | Perth | Hobart | Darwin

Other Formats:

Comma delimited format used in spreadsheet applications
http://www.bom.gov.au/fwo/IDV60901/IDV60901.94864.axf

JavaScript Object Notation format (JSON) in row-major order
http://www.bom.gov.au/fwo/IDV60901/IDV60901.94864.json